Time;durP1;ratioP1;P1;durP2;ratioP2;P2;SDS_P1;SDS_P2;PMS_P1;PMS_P2;Temp;Humidity;BMP_temperature;BMP_pressure;BME280_temperature;BME280_humidity;BME280_pressure;Samples;Min_cycle;Max_cycle;Signal;HPM_P1;HPM_P2
2022/08/23 00:01:38;;;;;;;25.77;17.05;;;;;;;23.15;41.63;100346.53;5017101;28;20458;-70
2022/08/23 00:04:06;;;;;;;24.13;16.50;;;;;;;23.10;41.92;100344.38;5017580;28;20033;-71
2022/08/23 00:06:31;;;;;;;32.15;17.70;;;;;;;23.08;42.14;100346.41;4999645;28;20132;-72
2022/08/23 00:08:56;;;;;;;27.77;16.55;;;;;;;23.03;42.04;100346.06;4999717;28;20128;-72
2022/08/23 00:11:25;;;;;;;23.60;17.42;;;;;;;23.07;41.74;100343.84;5017177;28;20046;-74
2022/08/23 00:13:50;;;;;;;27.73;17.20;;;;;;;23.02;41.88;100347.13;4999643;28;20041;-70
2022/08/23 00:16:15;;;;;;;31.23;18.13;;;;;;;22.96;41.99;100347.78;5018278;28;20098;-74
2022/08/23 00:18:40;;;;;;;21.92;15.45;;;;;;;22.94;41.83;100347.09;5039330;28;20106;-73
2022/08/23 00:21:05;;;;;;;29.13;16.38;;;;;;;22.94;42.17;100360.69;5019744;28;20037;-72
2022/08/23 00:23:30;;;;;;;21.42;14.98;;;;;;;22.90;42.19;100353.06;5038368;28;20105;-72
2022/08/23 00:25:55;;;;;;;24.67;16.50;;;;;;;22.84;42.40;100360.03;5036925;28;20052;-72
2022/08/23 00:28:19;;;;;;;24.88;16.75;;;;;;;22.84;42.24;100342.88;5037004;28;20101;-72
2022/08/23 00:30:44;;;;;;;30.98;17.20;;;;;;;22.92;42.25;100364.59;5020437;28;20071;-74
2022/08/23 00:33:09;;;;;;;26.27;16.77;;;;;;;22.86;42.15;100349.84;5037361;28;20032;-71
2022/08/23 00:35:34;;;;;;;23.55;14.75;;;;;;;22.89;41.98;100363.09;5021831;28;20044;-72
2022/08/23 00:37:59;;;;;;;28.35;15.20;;;;;;;22.88;42.06;100357.81;5005911;28;20036;-70
2022/08/23 00:40:24;;;;;;;21.73;14.88;;;;;;;22.88;42.02;100360.53;5036844;28;20051;-72
2022/08/23 00:48:33;;;;;;;26.05;15.20;;;;;;;23.00;41.59;100364.63;5035397;28;20097;-71
2022/08/23 00:51:15;;;;;;;23.08;14.50;;;;;;;22.99;41.85;100369.19;5022592;28;20048;-71
2022/08/23 00:53:45;;;;;;;20.42;14.77;;;;;;;22.98;41.81;100369.38;5038700;28;20085;-71
2022/08/23 00:56:15;;;;;;;22.38;14.70;;;;;;;23.01;41.72;100372.59;5039631;28;20040;-72
2022/08/23 00:58:40;;;;;;;23.85;15.95;;;;;;;23.00;41.80;100368.19;5058540;28;20042;-69
2022/08/23 01:01:05;;;;;;;22.65;13.68;;;;;;;22.90;42.17;100370.25;5059505;28;20452;-71
2022/08/23 01:03:34;;;;;;;23.75;14.88;;;;;;;22.87;41.91;100378.72;5040831;28;20040;-70
2022/08/23 01:06:17;;;;;;;22.60;14.40;;;;;;;22.89;42.06;100373.13;5059453;28;20464;-72
2022/08/23 01:08:48;;;;;;;21.25;14.75;;;;;;;22.83;42.27;100382.81;5056394;28;20093;-71
2022/08/23 01:11:20;;;;;;;25.45;14.68;;;;;;;22.80;42.52;100383.97;5020803;28;20101;-70
2022/08/23 01:14:10;;;;;;;21.13;13.68;;;;;;;22.78;42.40;100377.03;5038589;28;20036;-72
2022/08/23 01:16:44;;;;;;;29.98;13.90;;;;;;;22.68;42.58;100388.06;5055944;28;20452;-72
2022/08/23 01:19:21;;;;;;;23.30;15.10;;;;;;;22.80;42.61;100380.41;5023014;28;20104;-71
2022/08/23 01:21:56;;;;;;;22.60;13.80;;;;;;;22.67;43.09;100385.50;5037444;28;20135;-73
2022/08/23 01:24:21;;;;;;;29.45;15.23;;;;;;;22.68;42.98;100387.22;5037494;28;20143;-71
2022/08/23 01:26:47;;;;;;;23.77;15.52;;;;;;;22.62;43.24;100399.59;5037438;28;20051;-72
2022/08/23 01:29:12;;;;;;;28.75;14.55;;;;;;;22.67;43.10;100399.09;5037547;28;20100;-75
2022/08/23 01:31:37;;;;;;;20.50;14.27;;;;;;;22.63;43.54;100395.00;5037444;28;20101;-73
2022/08/23 01:34:06;;;;;;;25.35;14.23;;;;;;;22.58;43.35;100400.94;5037246;28;20040;-67
2022/08/23 01:36:32;;;;;;;23.52;14.57;;;;;;;22.46;43.89;100400.41;5037376;28;20131;-69
2022/08/23 01:38:57;;;;;;;25.75;15.70;;;;;;;22.44;43.56;100399.75;5037965;28;20506;-72
2022/08/23 01:41:23;;;;;;;23.17;14.23;;;;;;;22.45;44.10;100400.59;5037591;28;20050;-71
2022/08/23 01:43:48;;;;;;;25.02;15.52;;;;;;;22.34;44.34;100398.19;5037574;28;20044;-74
2022/08/23 01:46:20;;;;;;;21.52;14.75;;;;;;;22.32;44.42;100397.50;5020459;28;20104;-77
2022/08/23 01:48:48;;;;;;;22.70;14.13;;;;;;;22.24;44.74;100405.63;5037476;28;20058;-76
2022/08/23 01:51:17;;;;;;;25.23;15.85;;;;;;;22.24;44.85;100411.06;5037889;28;20047;-76
2022/08/23 01:53:43;;;;;;;24.83;13.95;;;;;;;22.22;44.86;100399.53;5037742;28;20046;-75
2022/08/23 01:56:08;;;;;;;26.40;15.45;;;;;;;22.22;44.76;100396.81;5055153;28;20093;-76
2022/08/23 01:58:36;;;;;;;22.05;14.88;;;;;;;22.22;45.07;100415.81;5037584;28;20047;-75
2022/08/23 02:01:03;;;;;;;24.13;14.05;;;;;;;22.18;45.15;100399.00;5054258;28;20048;-75
2022/08/23 02:03:31;;;;;;;21.77;14.55;;;;;;;22.15;45.26;100410.19;5037014;28;20078;-75
2022/08/23 02:05:57;;;;;;;19.92;14.18;;;;;;;22.09;45.23;100414.44;5055136;28;20062;-80
2022/08/23 02:11:11;;;;;;;;;;;;;;;22.17;44.56;100412.75;5055314;28;20043;-68
2022/08/23 02:13:36;;;;;;;19.58;13.93;;;;;;;22.06;45.33;100403.03;5036767;28;19920;-68
2022/08/23 02:16:01;;;;;;;21.23;13.55;;;;;;;22.01;45.66;100416.25;5036690;28;20043;-66
2022/08/23 02:18:28;;;;;;;22.55;13.98;;;;;;;21.96;45.58;100408.59;5038009;28;20123;-67
2022/08/23 02:20:53;;;;;;;31.77;15.25;;;;;;;21.92;45.74;100420.78;5056466;28;20043;-67
2022/08/23 02:23:20;;;;;;;20.98;14.15;;;;;;;21.89;46.04;100418.41;5020539;28;20039;-67
2022/08/23 02:25:45;;;;;;;23.50;13.75;;;;;;;21.89;45.89;100418.41;5036838;28;20043;-69
2022/08/23 02:28:10;;;;;;;20.50;12.77;;;;;;;21.95;45.55;100425.88;5036614;28;20077;-68
2022/08/23 02:30:37;;;;;;;26.70;14.10;;;;;;;21.91;46.15;100432.63;5036424;28;20197;-69
2022/08/23 02:33:02;;;;;;;22.67;13.02;;;;;;;21.88;46.47;100426.72;5036269;28;20044;-67
2022/08/23 02:35:27;;;;;;;20.92;13.98;;;;;;;21.83;46.30;100419.03;5036746;28;20108;-67
2022/08/23 02:37:52;;;;;;;19.10;13.63;;;;;;;21.81;46.04;100418.34;5055997;28;20513;-68
2022/08/23 02:40:18;;;;;;;20.58;13.75;;;;;;;21.99;45.23;100424.59;5056095;28;20046;-68
2022/08/23 02:42:43;;;;;;;22.00;13.63;;;;;;;22.04;45.44;100419.50;5019987;28;20044;-69
2022/08/23 02:45:09;;;;;;;21.02;14.00;;;;;;;22.13;44.93;100414.06;5054395;28;20032;-71
2022/08/23 02:47:40;;;;;;;22.30;14.18;;;;;;;22.04;46.29;100422.22;5037002;28;20052;-68
2022/08/23 02:50:12;;;;;;;22.33;14.18;;;;;;;22.05;45.13;100429.34;5037393;28;20070;-70
2022/08/23 02:52:37;;;;;;;28.48;13.48;;;;;;;22.01;46.40;100424.38;5041526;28;20068;-69
2022/08/23 02:55:02;;;;;;;21.30;12.52;;;;;;;21.97;46.38;100420.28;5019874;28;20040;-68
2022/08/23 02:57:28;;;;;;;20.33;12.82;;;;;;;21.94;46.30;100432.31;5019626;28;20036;-69
2022/08/23 02:59:53;;;;;;;19.77;14.25;;;;;;;21.93;46.33;100430.63;5019262;28;20055;-68
2022/08/23 03:02:19;;;;;;;25.48;14.95;;;;;;;21.92;46.46;100438.91;5019282;28;20624;-68
2022/08/23 03:04:44;;;;;;;20.15;15.15;;;;;;;21.94;46.27;100432.31;5036046;28;20224;-68
2022/08/23 03:07:09;;;;;;;22.02;13.82;;;;;;;21.95;46.13;100439.47;5036024;28;20048;-68
2022/08/23 03:09:35;;;;;;;19.83;13.38;;;;;;;21.98;46.59;100441.00;5037825;28;20047;-66
2022/08/23 03:12:00;;;;;;;19.63;13.25;;;;;;;22.00;46.63;100431.72;5045188;28;20036;-68
2022/08/23 03:14:26;;;;;;;19.40;13.35;;;;;;;22.03;46.02;100436.78;5026995;28;20055;-70
2022/08/23 03:16:52;;;;;;;21.80;13.52;;;;;;;22.07;46.07;100437.34;5042428;28;20054;-69
2022/08/23 03:19:16;;;;;;;21.05;13.75;;;;;;;22.09;46.15;100436.16;5047186;28;20409;-70
2022/08/23 03:21:42;;;;;;;26.02;13.88;;;;;;;22.15;45.92;100440.06;5063976;28;20051;-69
2022/08/23 03:24:08;;;;;;;20.40;13.85;;;;;;;22.19;45.92;100449.59;5042712;28;20803;-70
2022/08/23 03:26:33;;;;;;;19.58;12.85;;;;;;;22.20;45.88;100451.31;5022943;28;20109;-71
2022/08/23 03:28:57;;;;;;;19.50;12.93;;;;;;;22.25;45.27;100448.94;5057613;28;20044;-71
2022/08/23 03:31:27;;;;;;;20.02;13.93;;;;;;;22.26;45.59;100460.63;5023660;28;20514;-70
2022/08/23 03:34:04;;;;;;;20.67;13.02;;;;;;;22.28;45.44;100454.03;5039292;28;20131;-70
2022/08/23 03:36:29;;;;;;;19.58;13.25;;;;;;;22.29;45.98;100454.88;5039438;28;20537;-76
2022/08/23 03:38:55;;;;;;;25.52;14.57;;;;;;;22.26;46.00;100461.50;5039560;28;20051;-70
2022/08/23 03:41:21;;;;;;;21.98;13.32;;;;;;;22.26;45.97;100461.50;5039858;28;20051;-69
2022/08/23 03:43:46;;;;;;;23.55;12.60;;;;;;;22.28;45.87;100464.91;5039423;28;20567;-71
2022/08/23 03:46:21;;;;;;;22.27;13.27;;;;;;;22.31;45.76;100464.56;5022486;28;20057;-71
2022/08/23 03:48:52;;;;;;;21.67;13.05;;;;;;;22.33;45.98;100469.84;5038984;28;20056;-69
2022/08/23 03:51:19;;;;;;;18.05;13.32;;;;;;;22.31;46.06;100474.59;5019011;28;20442;-70
2022/08/23 03:53:46;;;;;;;20.90;12.52;;;;;;;22.34;46.09;100472.41;5019549;28;20553;-69
2022/08/23 03:56:20;;;;;;;20.90;13.70;;;;;;;22.33;46.21;100473.41;5019146;28;20517;-70
2022/08/23 03:58:48;;;;;;;19.75;13.10;;;;;;;22.35;46.04;100474.09;5018694;28;20436;-70
2022/08/23 04:01:13;;;;;;;22.02;14.18;;;;;;;22.37;46.33;100476.63;5019213;28;20040;-70
2022/08/23 04:03:38;;;;;;;18.45;13.20;;;;;;;22.37;46.60;100477.50;5019149;28;20067;-72
2022/08/23 04:06:03;;;;;;;20.98;13.30;;;;;;;22.40;46.25;100481.75;5017179;28;20450;-69
2022/08/23 04:08:30;;;;;;;18.00;12.77;;;;;;;22.46;46.23;100476.50;5018122;28;20040;-70
2022/08/23 04:10:56;;;;;;;21.33;13.75;;;;;;;22.47;46.40;100480.06;5018910;28;20542;-69
2022/08/23 04:13:23;;;;;;;18.95;13.48;;;;;;;22.50;46.89;100487.03;5018613;28;20503;-71
2022/08/23 04:15:48;;;;;;;19.65;12.55;;;;;;;22.58;46.87;100487.91;5018385;28;20040;-71
2022/08/23 04:18:17;;;;;;;18.30;12.93;;;;;;;22.65;46.48;100491.69;5018274;28;20131;-71
2022/08/23 04:20:42;;;;;;;19.15;12.38;;;;;;;22.71;46.19;100488.28;5036904;28;20521;-70
2022/08/23 04:23:06;;;;;;;17.77;11.40;;;;;;;22.84;46.22;100495.13;5017066;28;20510;-71
2022/08/23 04:25:44;;;;;;;19.10;13.20;;;;;;;22.94;45.99;100493.09;5001612;28;20047;-71
2022/08/23 04:28:09;;;;;;;23.58;13.52;;;;;;;23.05;46.02;100493.63;5019283;28;20407;-71
2022/08/23 04:30:34;;;;;;;20.45;12.07;;;;;;;23.12;45.63;100488.38;5020209;28;20040;-71
2022/08/23 04:33:00;;;;;;;19.38;13.10;;;;;;;23.23;46.51;100501.63;5036726;28;20480;-71
2022/08/23 04:35:26;;;;;;;18.17;12.32;;;;;;;23.35;45.58;100499.41;5008159;28;20423;-68
2022/08/23 04:37:52;;;;;;;18.17;11.63;;;;;;;23.48;44.83;100492.41;4998260;28;20110;-69
2022/08/23 04:43:01;;;;;;;20.15;12.27;;;;;;;23.63;45.30;100503.47;5014911;28;20056;-71
2022/08/23 04:45:28;;;;;;;18.00;11.20;;;;;;;23.82;44.62;100502.22;5014859;28;20551;-72
2022/08/23 04:47:53;;;;;;;18.67;11.20;;;;;;;24.12;44.07;100504.19;5031608;28;20419;-72
2022/08/23 04:50:18;;;;;;;25.55;12.13;;;;;;;24.41;43.50;100506.31;5014295;28;20521;-71
2022/08/23 04:53:08;;;;;;;15.02;12.05;;;;;;;24.80;43.07;100495.34;5015106;28;20053;-72
2022/08/23 04:55:39;;;;;;;34.50;15.15;;;;;;;25.18;42.71;100489.97;5014862;28;20048;-72
2022/08/23 04:58:06;;;;;;;15.57;11.73;;;;;;;25.48;41.56;100496.38;5016485;28;20036;-72
2022/08/23 05:00:38;;;;;;;17.42;12.50;;;;;;;25.50;41.31;100500.63;5015034;28;20041;-71
2022/08/23 05:03:03;;;;;;;20.27;13.15;;;;;;;25.40;41.13;100505.47;5014845;28;20055;-71
2022/08/23 05:05:28;;;;;;;21.90;13.02;;;;;;;25.27;42.43;100500.66;5019491;28;20048;-71
2022/08/23 05:07:54;;;;;;;20.48;11.38;;;;;;;25.36;42.21;100504.16;5035729;28;20475;-72
2022/08/23 05:10:19;;;;;;;17.42;11.18;;;;;;;25.50;41.57;100506.09;5000678;28;20082;-72
2022/08/23 05:12:48;;;;;;;19.73;11.95;;;;;;;25.61;41.13;100502.09;5001097;28;20102;-71
2022/08/23 05:15:14;;;;;;;16.30;10.85;;;;;;;25.75;40.55;100500.38;5016819;28;20044;-70
2022/08/23 05:17:44;;;;;;;21.67;12.15;;;;;;;25.92;40.55;100499.19;5017628;28;20098;-70
2022/08/23 05:20:09;;;;;;;14.20;10.73;;;;;;;26.17;39.59;100507.94;5017589;28;20048;-71
2022/08/23 05:22:37;;;;;;;13.95;10.80;;;;;;;26.20;39.54;100513.88;5017311;28;20518;-71
2022/08/23 05:25:17;;;;;;;18.10;11.38;;;;;;;26.24;40.42;100512.47;5003679;28;20395;-71
2022/08/23 05:27:42;;;;;;;17.15;10.95;;;;;;;26.37;40.23;100520.03;5017548;28;20056;-70
2022/08/23 05:30:10;;;;;;;24.60;12.63;;;;;;;26.54;39.42;100512.44;5017205;28;20056;-70
2022/08/23 05:32:34;;;;;;;16.08;11.00;;;;;;;26.75;38.53;100520.69;5017872;28;20517;-70
2022/08/23 05:35:00;;;;;;;14.75;11.80;;;;;;;26.87;38.76;100516.41;5017213;28;20382;-71
2022/08/23 05:37:25;;;;;;;16.58;10.48;;;;;;;27.01;38.09;100514.69;5000546;28;20099;-71
2022/08/23 05:39:50;;;;;;;20.08;11.50;;;;;;;26.99;38.90;100512.16;5017229;28;20048;-71
2022/08/23 05:42:16;;;;;;;14.73;11.38;;;;;;;26.99;38.09;100517.63;5000205;28;20066;-70
2022/08/23 05:44:43;;;;;;;16.40;10.07;;;;;;;27.02;38.68;100514.50;5000445;28;20097;-71
2022/08/23 05:47:11;;;;;;;20.77;11.32;;;;;;;27.09;38.08;100526.34;5020417;28;20048;-70
2022/08/23 05:49:42;;;;;;;18.52;11.70;;;;;;;26.93;38.31;100515.69;5037338;28;20532;-71
2022/08/23 05:52:10;;;;;;;15.70;11.30;;;;;;;26.87;38.33;100518.28;5020189;28;20521;-70
2022/08/23 05:54:35;;;;;;;17.70;11.13;;;;;;;27.14;37.57;100513.97;5020788;28;20051;-69
2022/08/23 05:57:18;;;;;;;16.80;11.48;;;;;;;27.47;37.32;100523.34;5035744;28;20085;-69
2022/08/23 05:59:43;;;;;;;16.85;11.65;;;;;;;27.92;36.63;100527.50;5054919;28;20043;-69
2022/08/23 06:02:09;;;;;;;14.02;10.32;;;;;;;28.52;35.76;100524.09;5036810;28;20088;-68
2022/08/23 06:04:33;;;;;;;22.42;11.75;;;;;;;28.86;34.58;100525.91;5036894;28;20533;-68
2022/08/23 06:06:58;;;;;;;20.75;11.25;;;;;;;29.03;34.34;100537.34;5019938;28;20461;-71
2022/08/23 06:09:23;;;;;;;16.90;11.00;;;;;;;29.18;34.28;100539.91;5020224;28;20502;-73
2022/08/23 06:11:48;;;;;;;14.90;10.18;;;;;;;29.29;33.76;100531.06;5036699;28;20035;-71
2022/08/23 06:14:15;;;;;;;15.43;11.70;;;;;;;29.38;33.88;100532.56;5036808;28;20047;-73
2022/08/23 06:16:44;;;;;;;19.65;10.93;;;;;;;29.35;34.25;100545.84;5036908;28;20027;-73
2022/08/23 06:19:13;;;;;;;16.63;11.38;;;;;;;29.21;33.49;100540.34;5036720;28;20514;-71
2022/08/23 06:22:04;;;;;;;17.08;11.80;;;;;;;29.19;34.34;100549.84;5021363;28;20068;-73
2022/08/23 06:24:33;;;;;;;14.75;11.48;;;;;;;29.23;34.14;100551.13;5036708;28;20048;-72
2022/08/23 06:27:10;;;;;;;22.05;12.75;;;;;;;28.99;34.13;100552.56;5039459;28;20048;-70
2022/08/23 06:29:35;;;;;;;16.85;12.30;;;;;;;28.87;34.67;100548.72;5036592;28;20044;-70
2022/08/23 06:32:29;;;;;;;;;;;;;;;29.11;34.71;100553.66;5012703;28;20472;-72
2022/08/23 06:35:12;;;;;;;17.52;11.00;;;;;;;29.13;34.68;100557.00;4995881;28;20055;-69
2022/08/23 06:38:04;;;;;;;19.25;11.45;;;;;;;29.17;34.63;100550.06;4992591;28;20451;-71
2022/08/23 06:40:44;;;;;;;18.35;10.35;;;;;;;29.35;34.17;100559.56;4992609;28;20520;-70
2022/08/23 06:43:47;;;;;;;19.08;12.38;;;;;;;29.56;34.00;100554.78;4953510;28;20073;-70
2022/08/23 06:46:28;;;;;;;19.80;11.57;;;;;;;29.74;33.43;100564.28;4924063;28;20085;-71
2022/08/23 06:48:54;;;;;;;17.27;12.00;;;;;;;29.64;33.58;100556.47;4958230;28;20534;-71
2022/08/23 06:51:26;;;;;;;19.20;12.43;;;;;;;29.82;33.80;100559.41;4944215;28;20041;-70
2022/08/23 06:54:14;;;;;;;;;;;;;;;30.46;33.04;100563.34;4964270;28;20424;-72
2022/08/23 06:56:54;;;;;;;25.33;12.45;;;;;;;30.55;32.42;100560.19;4960389;28;19956;-70
2022/08/23 06:59:25;;;;;;;25.13;13.38;;;;;;;30.66;31.96;100562.25;4944911;28;20045;-70
2022/08/23 07:02:13;;;;;;;19.52;12.35;;;;;;;30.90;31.76;100568.06;4976978;28;20180;-71
2022/08/23 07:04:57;;;;;;;18.98;12.80;;;;;;;31.21;32.08;100559.84;4976802;28;20069;-70
2022/08/23 07:07:40;;;;;;;24.20;13.30;;;;;;;32.02;31.15;100556.25;4960162;28;20540;-70
2022/08/23 07:10:06;;;;;;;24.20;13.50;;;;;;;32.79;29.70;100569.44;4958611;28;20529;-70
2022/08/23 07:12:32;;;;;;;22.73;13.23;;;;;;;33.33;28.73;100562.09;4942287;28;20049;-70
2022/08/23 07:14:57;;;;;;;17.83;12.35;;;;;;;33.73;28.56;100564.22;5000751;28;20048;-70
2022/08/23 07:17:21;;;;;;;25.35;12.57;;;;;;;33.74;28.04;100561.22;5038270;28;20047;-70
2022/08/23 07:19:47;;;;;;;18.45;12.85;;;;;;;33.49;28.94;100566.97;5039796;28;20563;-70
2022/08/23 07:22:12;;;;;;;19.42;13.45;;;;;;;33.40;28.42;100576.69;5022752;28;20586;-69
2022/08/23 07:24:37;;;;;;;20.27;13.50;;;;;;;33.28;28.79;100567.50;5023161;28;20099;-71
2022/08/23 07:27:08;;;;;;;19.90;12.55;;;;;;;33.32;29.45;100571.47;5039367;28;20040;-69
2022/08/23 07:29:51;;;;;;;26.73;14.60;;;;;;;33.40;28.97;100570.31;5040145;28;20488;-69
2022/08/23 07:32:16;;;;;;;19.20;13.35;;;;;;;33.43;28.00;100570.66;5039518;28;20489;-71
2022/08/23 07:34:41;;;;;;;18.92;13.52;;;;;;;33.52;28.22;100566.47;5039658;28;20039;-71
2022/08/23 07:37:06;;;;;;;22.30;14.57;;;;;;;33.53;28.15;100576.44;5039462;28;20115;-71
2022/08/23 07:39:32;;;;;;;26.33;15.30;;;;;;;33.51;28.04;100567.56;5039143;28;20424;-71
2022/08/23 07:42:03;;;;;;;27.02;15.68;;;;;;;33.95;27.58;100572.81;5056980;28;20422;-72
2022/08/23 07:44:28;;;;;;;21.10;15.52;;;;;;;34.64;27.08;100569.16;5022820;28;20410;-72
2022/08/23 07:46:53;;;;;;;25.83;15.38;;;;;;;35.17;25.94;100562.47;5022102;28;20057;-70
2022/08/23 07:49:18;;;;;;;22.10;15.30;;;;;;;35.45;25.31;100570.75;5039050;28;20139;-72
2022/08/23 07:51:48;;;;;;;21.73;15.55;;;;;;;35.45;25.40;100573.53;5039328;28;20135;-70
2022/08/23 07:54:13;;;;;;;23.20;15.65;;;;;;;35.62;25.09;100573.56;5039195;28;20039;-71
2022/08/23 07:57:01;;;;;;;19.65;13.75;;;;;;;35.85;25.32;100570.66;5014982;28;20053;-70
2022/08/23 07:59:44;;;;;;;17.50;13.00;;;;;;;36.19;24.40;100571.44;5013772;28;20057;-72
2022/08/23 08:02:32;;;;;;;22.98;14.45;;;;;;;36.07;24.83;100565.16;5010090;28;20059;-71
2022/08/23 08:04:59;;;;;;;17.27;13.10;;;;;;;36.08;24.63;100564.06;4998182;28;20056;-72
2022/08/23 08:07:26;;;;;;;23.40;13.23;;;;;;;36.05;24.25;100567.34;4998532;28;20077;-70
2022/08/23 08:09:56;;;;;;;20.38;13.32;;;;;;;35.86;24.66;100563.19;5014821;28;20048;-70
2022/08/23 08:12:21;;;;;;;18.50;12.98;;;;;;;35.68;25.45;100558.69;4998055;28;20041;-72
2022/08/23 08:14:48;;;;;;;21.70;13.57;;;;;;;35.59;25.64;100566.59;4998041;28;20137;-70
2022/08/23 08:17:16;;;;;;;16.80;12.18;;;;;;;35.79;25.05;100573.59;4997963;28;20095;-70
2022/08/23 08:20:08;;;;;;;20.17;12.32;;;;;;;36.10;24.85;100564.66;4955399;28;20465;-70
2022/08/23 08:22:51;;;;;;;16.60;12.05;;;;;;;36.41;25.17;100567.91;4955760;28;20052;-71
2022/08/23 08:25:35;;;;;;;19.27;11.82;;;;;;;37.05;24.04;100563.44;4955483;28;20152;-70
2022/08/23 08:28:03;;;;;;;21.80;12.40;;;;;;;37.82;23.06;100565.03;4956527;28;20402;-69
2022/08/23 08:30:31;;;;;;;15.23;11.93;;;;;;;38.56;22.14;100563.03;4955627;28;20161;-71
2022/08/23 08:32:58;;;;;;;16.30;12.60;;;;;;;39.43;21.40;100567.78;4957705;28;20102;-70
2022/08/23 08:35:24;;;;;;;19.67;13.50;;;;;;;39.81;20.32;100565.56;4994544;28;20064;-71
2022/08/23 08:37:49;;;;;;;18.73;12.77;;;;;;;39.81;20.37;100566.41;4994552;28;20174;-71
2022/08/23 08:40:19;;;;;;;24.10;12.35;;;;;;;40.87;19.64;100572.88;4994472;28;20064;-71
2022/08/23 08:42:44;;;;;;;25.77;12.43;;;;;;;42.36;18.33;100561.94;4978150;28;20046;-70
2022/08/23 08:45:18;;;;;;;14.70;12.20;;;;;;;43.47;17.46;100578.38;4961582;28;20053;-71
2022/08/23 08:48:07;;;;;;;14.63;12.98;;;;;;;43.75;17.28;100574.56;4961122;28;20495;-71
2022/08/23 08:50:46;;;;;;;18.45;12.55;;;;;;;44.32;15.97;100580.84;4981277;28;20049;-71
2022/08/23 08:53:17;;;;;;;19.58;12.85;;;;;;;44.86;16.21;100582.84;4961261;28;20419;-70
2022/08/23 08:56:13;;;;;;;16.17;12.35;;;;;;;45.96;15.68;100590.13;5000888;28;20408;-71
2022/08/23 08:58:44;;;;;;;15.40;13.35;;;;;;;46.54;14.62;100598.38;5038115;28;20044;-69
2022/08/23 09:01:11;;;;;;;17.10;14.27;;;;;;;46.55;14.03;100591.59;5021037;28;20032;-70
2022/08/23 09:03:39;;;;;;;19.30;14.23;;;;;;;45.77;14.53;100581.84;5037694;28;20740;-70
2022/08/23 09:06:13;;;;;;;18.38;13.85;;;;;;;45.36;15.22;100582.88;5021071;28;20055;-70
2022/08/23 09:09:04;;;;;;;17.02;15.25;;;;;;;45.01;15.94;100576.06;5055503;28;20059;-71
2022/08/23 09:11:49;;;;;;;14.93;13.25;;;;;;;45.26;15.43;100573.81;5037516;28;20040;-71
2022/08/23 09:14:26;;;;;;;17.98;14.40;;;;;;;45.38;15.96;100572.09;5038035;28;20040;-72
2022/08/23 09:17:02;;;;;;;22.30;15.10;;;;;;;45.92;15.22;100571.06;5022802;28;20066;-72
2022/08/23 09:19:30;;;;;;;18.92;15.20;;;;;;;46.29;14.87;100571.72;5024909;28;20048;-71
2022/08/23 09:21:59;;;;;;;17.52;13.95;;;;;;;47.09;14.19;100569.66;5056617;28;20048;-71
2022/08/23 09:24:25;;;;;;;18.08;15.32;;;;;;;47.82;14.02;100571.50;5038184;28;20122;-70
2022/08/23 09:27:10;;;;;;;17.83;16.10;;;;;;;48.51;13.67;100584.59;5038652;28;20051;-72
2022/08/23 09:29:37;;;;;;;18.05;16.08;;;;;;;48.10;13.01;100574.75;5025830;28;20107;-72
2022/08/23 09:32:06;;;;;;;17.98;16.27;;;;;;;47.46;13.59;100577.50;5045188;28;20608;-71
2022/08/23 09:34:36;;;;;;;23.80;16.77;;;;;;;47.03;14.11;100568.19;5046498;28;20108;-71
2022/08/23 09:37:08;;;;;;;20.00;18.15;;;;;;;47.44;13.72;100577.00;5057490;28;20044;-73
2022/08/23 09:39:36;;;;;;;16.42;14.90;;;;;;;47.43;13.23;100564.03;5022132;28;20139;-73
2022/08/23 09:42:25;;;;;;;17.15;14.57;;;;;;;46.52;13.63;100567.66;5038543;28;20044;-72
2022/08/23 09:44:50;;;;;;;18.10;14.75;;;;;;;44.80;14.95;100564.44;5038763;28;20430;-72
2022/08/23 09:47:17;;;;;;;17.15;12.57;;;;;;;43.69;15.84;100558.94;5035899;28;20048;-70
2022/08/23 09:49:50;;;;;;;15.57;13.83;;;;;;;42.48;17.32;100555.06;5019660;28;20045;-70
2022/08/23 09:52:31;;;;;;;14.52;12.00;;;;;;;42.69;17.02;100559.25;5017640;28;20290;-70
2022/08/23 09:55:03;;;;;;;15.82;12.55;;;;;;;42.81;16.93;100565.31;5034562;28;20044;-71
2022/08/23 09:57:33;;;;;;;16.80;12.90;;;;;;;42.55;16.80;100549.94;5017134;28;20040;-71
2022/08/23 10:00:32;;;;;;;14.13;12.45;;;;;;;41.91;17.92;100554.78;5034426;28;20075;-70
2022/08/23 10:03:18;;;;;;;15.35;11.82;;;;;;;41.91;17.31;100551.16;5034615;28;20044;-71
2022/08/23 10:05:49;;;;;;;13.05;11.30;;;;;;;41.12;17.49;100557.91;5016586;28;20124;-70
2022/08/23 10:08:26;;;;;;;;;;;;;;;41.82;17.57;100552.94;5017178;28;20051;-69
2022/08/23 10:11:04;;;;;;;11.50;10.20;;;;;;;41.62;17.25;100559.56;5016966;28;19920;-70
2022/08/23 10:13:30;;;;;;;12.30;10.35;;;;;;;41.17;17.26;100547.56;5017410;28;20052;-69
2022/08/23 10:16:24;;;;;;;15.25;10.82;;;;;;;40.88;18.25;100538.19;5016834;28;20040;-69
2022/08/23 10:19:35;;;;;;;10.93;9.82;;;;;;;41.06;17.54;100561.88;5016792;28;20451;-69
2022/08/23 10:22:19;;;;;;;11.63;10.45;;;;;;;39.86;18.29;100613.88;5016418;28;20056;-69
2022/08/23 10:25:29;;;;;;;17.05;10.30;;;;;;;37.97;19.96;100540.94;5024597;28;20051;-72
2022/08/23 10:31:32;;;;;;;11.43;9.68;;;;;;;36.12;22.01;100539.44;5035849;28;20050;-70
2022/08/23 10:34:10;;;;;;;13.38;9.07;;;;;;;35.58;22.47;100539.94;5013343;28;20056;-70
2022/08/23 10:36:47;;;;;;;12.85;9.75;;;;;;;35.15;22.91;100534.16;5017107;28;20430;-69
2022/08/23 10:39:27;;;;;;;11.00;9.38;;;;;;;34.63;23.29;100536.16;5016535;28;20044;-71
2022/08/23 10:42:37;;;;;;;10.65;8.77;;;;;;;34.51;23.61;100536.19;5016709;28;20159;-70
2022/08/23 10:45:28;;;;;;;9.63;8.45;;;;;;;34.15;24.05;100529.84;4998220;28;20463;-71
2022/08/23 10:48:15;;;;;;;12.63;8.18;;;;;;;33.86;24.41;100536.38;5014703;28;20044;-75
2022/08/23 10:51:04;;;;;;;15.18;9.05;;;;;;;33.61;24.96;100530.19;5019967;28;20044;-73
2022/08/23 10:53:45;;;;;;;14.15;8.05;;;;;;;33.25;25.81;100534.81;5039652;28;20040;-73
2022/08/23 10:56:15;;;;;;;10.57;8.43;;;;;;;33.01;25.23;100527.47;5038094;28;20048;-73
2022/08/23 10:58:53;;;;;;;12.35;8.55;;;;;;;32.89;25.96;100523.84;5020051;28;20046;-73
2022/08/23 11:01:38;;;;;;;11.80;9.02;;;;;;;32.93;26.69;100530.59;5036278;28;20043;-70
2022/08/23 11:04:08;;;;;;;13.23;8.95;;;;;;;33.09;25.66;100535.44;5036215;28;20097;-71
2022/08/23 11:06:54;;;;;;;14.95;9.68;;;;;;;33.07;25.07;100532.91;5038536;28;20052;-70
2022/08/23 11:09:19;;;;;;;11.38;8.40;;;;;;;32.98;24.59;100520.50;5019291;28;20040;-72
2022/08/23 11:12:07;;;;;;;11.30;8.05;;;;;;;33.00;25.13;100520.25;5034231;28;20051;-70
2022/08/23 11:14:39;;;;;;;12.10;8.20;;;;;;;32.85;25.18;100525.38;4999204;28;20448;-69
2022/08/23 11:17:09;;;;;;;15.02;9.63;;;;;;;32.76;25.36;100538.66;5015967;28;20098;-70
2022/08/23 11:19:52;;;;;;;10.80;7.95;;;;;;;32.76;24.93;100536.75;4998834;28;20036;-69
2022/08/23 11:22:22;;;;;;;10.88;8.55;;;;;;;32.61;25.29;100530.78;4999429;28;20560;-70
2022/08/23 11:24:59;;;;;;;11.63;8.75;;;;;;;32.55;25.53;100525.31;5015784;28;20072;-69
2022/08/23 11:27:39;;;;;;;13.40;9.68;;;;;;;32.53;26.06;100542.09;5016006;28;20495;-70
2022/08/23 11:30:31;;;;;;;10.63;8.38;;;;;;;32.57;26.23;100537.81;5016543;28;20048;-70
2022/08/23 11:33:22;;;;;;;11.50;8.93;;;;;;;32.65;26.07;100536.66;5034758;28;20032;-71
2022/08/23 11:36:15;;;;;;;12.05;8.82;;;;;;;32.55;27.02;100517.88;5019571;28;20055;-70
2022/08/23 11:38:47;;;;;;;10.77;8.88;;;;;;;32.58;26.82;100528.47;5019561;28;20528;-69
2022/08/23 11:41:18;;;;;;;16.02;9.05;;;;;;;32.56;26.47;100533.38;5019336;28;20495;-69
2022/08/23 11:43:56;;;;;;;13.27;9.32;;;;;;;32.52;26.30;100534.06;5042700;28;20525;-69
2022/08/23 11:46:30;;;;;;;14.25;10.13;;;;;;;32.42;25.99;100526.31;5024910;28;20044;-72